Time;durP1;ratioP1;P1;durP2;ratioP2;P2;SDS_P1;SDS_P2;PMS_P1;PMS_P2;Temp;Humidity;BMP_temperature;BMP_pressure;BME280_temperature;BME280_humidity;BME280_pressure;Samples;Min_cycle;Max_cycle;Signal;HPM_P1;HPM_P2
2023/07/18 00:00:35;;;;;;;11.25;4.47;;;15.70;99.90;;;;;;5107818;28;20047;-78
2023/07/18 00:03:03;;;;;;;10.50;3.92;;;15.70;99.90;;;;;;5107750;28;20100;-76
2023/07/18 00:05:29;;;;;;;10.23;4.20;;;15.60;99.90;;;;;;5093373;28;20051;-74
2023/07/18 00:07:55;;;;;;;10.75;4.30;;;15.60;99.90;;;;;;5109990;28;20035;-75
2023/07/18 00:10:22;;;;;;;13.13;4.72;;;15.60;99.90;;;;;;5109840;28;20024;-77
2023/07/18 00:12:49;;;;;;;8.98;4.00;;;15.50;99.90;;;;;;5108853;27;20043;-76
2023/07/18 00:15:15;;;;;;;9.70;4.32;;;15.30;99.90;;;;;;5107811;28;20023;-77
2023/07/18 00:17:41;;;;;;;8.00;3.95;;;15.20;99.90;;;;;;5084521;28;20083;-78
2023/07/18 00:20:09;;;;;;;9.52;4.10;;;15.20;99.90;;;;;;5109146;28;20119;-76
2023/07/18 00:22:36;;;;;;;10.10;4.75;;;15.30;99.90;;;;;;5108251;28;20064;-77
2023/07/18 00:25:02;;;;;;;10.93;4.10;;;15.30;99.90;;;;;;5101437;27;20027;-78
2023/07/18 00:27:28;;;;;;;8.70;4.05;;;15.30;99.90;;;;;;5109212;27;20527;-78
2023/07/18 00:29:55;;;;;;;9.75;4.30;;;15.20;99.90;;;;;;5108123;28;20102;-78
2023/07/18 00:32:22;;;;;;;9.80;3.80;;;15.30;99.90;;;;;;5108201;28;20036;-77
2023/07/18 00:34:49;;;;;;;11.70;3.97;;;15.10;99.90;;;;;;5089335;28;20063;-78
2023/07/18 00:37:15;;;;;;;12.27;4.68;;;15.00;99.90;;;;;;5087236;28;20035;-76
2023/07/18 00:39:41;;;;;;;11.32;4.50;;;14.90;99.90;;;;;;5106668;28;20031;-76
2023/07/18 00:42:07;;;;;;;9.55;4.00;;;15.00;99.90;;;;;;5109483;27;20057;-77
2023/07/18 00:44:33;;;;;;;10.43;4.63;;;15.00;99.90;;;;;;5107862;28;20063;-78
2023/07/18 00:46:59;;;;;;;10.70;4.35;;;15.00;99.90;;;;;;5103753;28;20051;-75
2023/07/18 00:49:25;;;;;;;11.30;4.38;;;14.90;99.90;;;;;;5106141;28;20055;-77
2023/07/18 00:51:51;;;;;;;12.68;4.22;;;14.90;99.90;;;;;;5105058;28;20039;-77
2023/07/18 00:54:17;;;;;;;8.50;4.10;;;14.90;99.90;;;;;;5110484;27;20043;-75
2023/07/18 00:56:43;;;;;;;13.02;4.45;;;14.80;99.90;;;;;;5104466;28;20444;-76
2023/07/18 00:59:13;;;;;;;13.52;4.60;;;14.90;99.90;;;;;;5110154;27;20031;-77
2023/07/18 01:01:39;;;;;;;11.45;4.38;;;14.90;99.90;;;;;;5099295;28;20027;-76
2023/07/18 01:04:05;;;;;;;11.13;4.60;;;14.90;99.90;;;;;;5108385;28;20468;-77
2023/07/18 01:06:31;;;;;;;8.98;4.00;;;14.80;99.90;;;;;;5101651;28;20031;-76
2023/07/18 01:08:56;;;;;;;9.25;4.00;;;14.60;99.90;;;;;;5098047;27;20114;-78
2023/07/18 01:11:22;;;;;;;9.20;4.20;;;14.50;99.90;;;;;;5108281;28;20036;-76
2023/07/18 01:13:48;;;;;;;13.10;4.32;;;14.40;99.90;;;;;;5108199;28;20104;-75
2023/07/18 01:16:14;;;;;;;9.88;4.25;;;14.40;99.90;;;;;;5108504;28;20023;-75
2023/07/18 01:18:40;;;;;;;13.25;4.30;;;14.50;99.90;;;;;;5107235;28;20101;-76
2023/07/18 01:21:09;;;;;;;6.97;4.18;;;14.50;99.90;;;;;;5108578;28;20467;-77
2023/07/18 01:23:35;;;;;;;9.88;4.15;;;14.40;99.90;;;;;;5099883;28;20139;-78
2023/07/18 01:26:00;;;;;;;9.82;4.10;;;14.40;99.90;;;;;;5116528;28;20115;-75
2023/07/18 01:28:26;;;;;;;11.90;4.30;;;14.40;99.90;;;;;;5109606;28;20035;-76
2023/07/18 01:30:52;;;;;;;9.23;3.92;;;14.40;99.90;;;;;;5107615;28;20030;-78
2023/07/18 01:33:17;;;;;;;9.82;4.45;;;14.30;99.90;;;;;;5106414;28;20027;-76
2023/07/18 01:35:43;;;;;;;9.20;4.20;;;14.20;99.90;;;;;;5088752;28;20031;-77
2023/07/18 01:38:09;;;;;;;9.77;3.90;;;14.20;99.90;;;;;;5110544;28;20119;-76
2023/07/18 01:40:35;;;;;;;8.95;4.32;;;14.10;99.90;;;;;;5107501;28;20460;-75
2023/07/18 01:43:01;;;;;;;10.05;3.97;;;14.10;99.90;;;;;;5092384;28;20110;-76
2023/07/18 01:45:27;;;;;;;12.55;4.75;;;14.10;99.90;;;;;;5108324;28;20472;-77
2023/07/18 01:47:56;;;;;;;26.08;4.82;;;14.00;99.90;;;;;;5107947;28;20035;-76
2023/07/18 01:50:21;;;;;;;10.35;4.00;;;14.00;99.90;;;;;;5112038;28;20039;-75
2023/07/18 01:52:47;;;;;;;7.53;4.00;;;13.90;99.90;;;;;;5106688;28;20036;-77
2023/07/18 01:55:13;;;;;;;11.15;4.30;;;13.90;99.90;;;;;;5113662;27;20027;-75
2023/07/18 01:57:38;;;;;;;8.00;4.28;;;13.80;99.90;;;;;;5111800;28;20416;-78
2023/07/18 02:00:11;;;;;;;11.65;4.05;;;13.90;99.90;;;;;;5110475;28;20051;-77
2023/07/18 02:02:37;;;;;;;9.50;4.53;;;14.00;99.90;;;;;;5109199;28;20073;-75
2023/07/18 02:05:04;;;;;;;11.73;4.57;;;14.00;99.90;;;;;;5086123;28;20032;-75
2023/07/18 02:07:30;;;;;;;12.18;4.32;;;14.00;99.90;;;;;;5110313;28;20081;-76
2023/07/18 02:09:55;;;;;;;10.75;4.28;;;14.00;99.90;;;;;;5111005;28;20452;-75
2023/07/18 02:12:21;;;;;;;9.80;4.25;;;14.00;99.90;;;;;;5087601;28;20047;-76
2023/07/18 02:14:47;;;;;;;11.27;4.20;;;14.00;99.90;;;;;;5106672;27;20036;-77
2023/07/18 02:17:12;;;;;;;11.07;3.78;;;14.00;99.90;;;;;;5109643;28;20026;-76
2023/07/18 02:19:38;;;;;;;8.85;4.20;;;14.00;99.90;;;;;;5111485;28;20080;-75
2023/07/18 02:22:04;;;;;;;9.68;4.63;;;13.90;99.90;;;;;;5112376;28;20027;-76
2023/07/18 02:24:30;;;;;;;7.40;3.88;;;13.80;99.90;;;;;;5113420;27;20047;-76
2023/07/18 02:26:57;;;;;;;9.55;4.25;;;13.70;99.90;;;;;;5092261;28;20028;-75
2023/07/18 02:29:23;;;;;;;7.25;4.07;;;13.70;99.90;;;;;;5112294;28;20027;-75
2023/07/18 02:31:49;;;;;;;7.53;3.88;;;13.70;99.90;;;;;;5109452;28;20440;-76
2023/07/18 02:34:14;;;;;;;9.10;4.40;;;13.70;99.90;;;;;;5118213;27;20043;-77
2023/07/18 02:36:40;;;;;;;8.77;3.60;;;13.70;99.90;;;;;;5108772;28;20259;-77
2023/07/18 02:39:08;;;;;;;8.55;3.72;;;13.80;99.90;;;;;;5110893;28;20076;-76
2023/07/18 02:41:37;;;;;;;10.10;3.80;;;13.60;99.90;;;;;;5092629;28;20496;-77
2023/07/18 02:44:05;;;;;;;7.47;3.72;;;13.30;99.90;;;;;;5110546;28;20027;-75
2023/07/18 02:46:31;;;;;;;8.50;3.60;;;12.80;99.90;;;;;;5110400;27;20166;-77
2023/07/18 02:48:56;;;;;;;16.15;4.07;;;12.50;99.90;;;;;;5112301;27;20052;-77
2023/07/18 02:51:22;;;;;;;7.47;4.13;;;12.50;99.90;;;;;;5118121;27;20039;-77
2023/07/18 02:53:51;;;;;;;10.75;4.10;;;12.50;99.90;;;;;;5113658;27;20043;-77
2023/07/18 02:56:16;;;;;;;10.27;4.15;;;12.70;99.90;;;;;;5092109;28;20034;-77
2023/07/18 02:58:42;;;;;;;8.32;4.10;;;12.70;99.90;;;;;;5110293;28;20031;-77
2023/07/18 03:01:08;;;;;;;9.48;4.10;;;12.80;99.90;;;;;;5110443;28;20031;-77
2023/07/18 03:03:34;;;;;;;10.02;4.22;;;12.90;99.90;;;;;;5109996;28;20064;-75
2023/07/18 03:06:00;;;;;;;10.07;4.57;;;13.00;99.90;;;;;;5106067;28;20031;-75
2023/07/18 03:08:27;;;;;;;8.73;4.35;;;13.00;99.90;;;;;;5116720;27;20034;-78
2023/07/18 03:10:53;;;;;;;12.63;4.68;;;13.00;99.90;;;;;;5108664;28;20051;-76
2023/07/18 03:13:19;;;;;;;9.57;4.50;;;13.10;99.90;;;;;;5110589;28;20108;-76
2023/07/18 03:15:44;;;;;;;12.00;4.20;;;13.20;99.90;;;;;;5090197;28;20039;-76
2023/07/18 03:18:10;;;;;;;11.77;4.43;;;13.30;99.90;;;;;;5110543;28;20027;-76
2023/07/18 03:20:39;;;;;;;9.20;4.25;;;13.30;99.90;;;;;;5092247;28;20032;-75
2023/07/18 03:23:05;;;;;;;10.85;4.25;;;13.40;99.90;;;;;;5110415;28;20065;-77
2023/07/18 03:25:31;;;;;;;10.88;3.70;;;13.10;99.90;;;;;;5097044;28;20054;-74
2023/07/18 03:27:56;;;;;;;12.88;4.50;;;12.90;99.90;;;;;;5110327;28;20475;-69
2023/07/18 03:30:22;;;;;;;8.25;4.07;;;12.90;99.90;;;;;;5109381;28;20148;-70
2023/07/18 03:32:50;;;;;;;7.70;3.97;;;12.70;99.90;;;;;;5107289;28;20024;-70
2023/07/18 03:35:16;;;;;;;9.23;4.00;;;12.70;99.90;;;;;;5100062;28;20136;-70
2023/07/18 03:37:42;;;;;;;7.45;4.00;;;12.60;99.90;;;;;;5104834;27;20031;-71
2023/07/18 03:40:10;;;;;;;11.05;4.10;;;12.60;99.90;;;;;;5102254;28;20021;-71
2023/07/18 03:42:36;;;;;;;7.07;3.50;;;12.70;99.90;;;;;;5104774;28;20475;-69
2023/07/18 03:45:04;;;;;;;10.98;4.05;;;12.80;99.90;;;;;;5101566;28;20468;-70
2023/07/18 03:47:31;;;;;;;6.95;4.00;;;12.90;99.90;;;;;;5100904;28;20085;-70
2023/07/18 03:49:57;;;;;;;9.85;4.25;;;13.00;99.90;;;;;;5100814;28;20678;-70
2023/07/18 03:52:23;;;;;;;9.95;4.22;;;13.10;99.90;;;;;;5106484;28;20089;-71
2023/07/18 03:54:48;;;;;;;8.88;4.22;;;13.10;99.90;;;;;;5089716;28;20062;-71
2023/07/18 03:57:14;;;;;;;11.55;4.50;;;13.00;99.90;;;;;;5114753;27;20808;-71
2023/07/18 03:59:40;;;;;;;8.32;3.63;;;13.00;99.90;;;;;;5095885;27;20019;-69
2023/07/18 04:02:06;;;;;;;9.20;4.30;;;13.00;99.90;;;;;;5107612;27;20031;-72
2023/07/18 04:04:31;;;;;;;7.53;3.95;;;13.10;99.90;;;;;;5105707;28;20036;-71
2023/07/18 04:06:57;;;;;;;9.25;4.10;;;13.20;99.90;;;;;;5109084;28;20023;-72
2023/07/18 04:09:23;;;;;;;7.38;3.78;;;13.00;99.90;;;;;;5109047;28;20387;-70
2023/07/18 04:11:48;;;;;;;9.13;4.03;;;13.00;99.90;;;;;;5106281;28;20384;-71
2023/07/18 04:14:14;;;;;;;8.38;3.67;;;13.00;99.90;;;;;;5106447;28;20035;-70
2023/07/18 04:16:40;;;;;;;6.80;3.47;;;12.90;99.90;;;;;;5095604;27;20040;-70
2023/07/18 04:19:08;;;;;;;9.93;4.20;;;13.10;99.90;;;;;;5104036;28;20032;-75
2023/07/18 04:21:34;;;;;;;8.50;4.05;;;13.10;99.90;;;;;;5096316;28;20027;-72
2023/07/18 04:23:59;;;;;;;9.80;4.25;;;13.10;99.90;;;;;;5103701;27;20025;-72
2023/07/18 04:26:25;;;;;;;10.15;4.20;;;13.10;99.90;;;;;;5108134;28;20039;-72
2023/07/18 04:28:51;;;;;;;8.02;3.97;;;13.20;99.90;;;;;;5098859;28;20364;-72
2023/07/18 04:31:17;;;;;;;8.85;4.03;;;13.10;99.90;;;;;;5101631;28;20076;-71
2023/07/18 04:33:42;;;;;;;7.30;3.83;;;13.20;99.90;;;;;;5092523;28;20177;-70
2023/07/18 04:36:08;;;;;;;8.00;4.07;;;13.40;99.90;;;;;;5106187;28;20028;-72
2023/07/18 04:38:34;;;;;;;15.25;4.15;;;13.60;99.90;;;;;;5099867;28;20028;-72
2023/07/18 04:41:02;;;;;;;10.43;3.95;;;13.70;99.90;;;;;;5087528;28;20051;-71
2023/07/18 04:43:28;;;;;;;10.43;3.78;;;13.60;99.90;;;;;;5102869;28;20031;-70
2023/07/18 04:45:54;;;;;;;9.20;3.72;;;13.70;99.90;;;;;;5112515;27;20119;-70
2023/07/18 04:48:20;;;;;;;9.27;4.28;;;13.70;99.90;;;;;;5096713;28;20062;-69
2023/07/18 04:50:50;;;;;;;10.57;4.57;;;13.80;99.90;;;;;;5107636;28;20090;-70
2023/07/18 04:53:16;;;;;;;7.28;3.72;;;14.00;99.90;;;;;;5107797;28;20564;-71
2023/07/18 04:55:42;;;;;;;9.75;3.70;;;14.20;99.90;;;;;;5100824;28;20122;-70
2023/07/18 04:58:07;;;;;;;9.20;4.35;;;14.30;99.90;;;;;;5100044;28;20027;-70
2023/07/18 05:00:34;;;;;;;7.30;4.18;;;14.40;99.90;;;;;;5107315;28;20103;-74
2023/07/18 05:03:00;;;;;;;13.80;4.60;;;14.40;99.90;;;;;;5108130;27;20092;-70
2023/07/18 05:05:27;;;;;;;9.50;3.90;;;14.40;99.90;;;;;;5087648;28;20417;-73
2023/07/18 05:08:00;;;;;;;7.13;3.75;;;14.60;99.90;;;;;;5106563;28;20059;-72
2023/07/18 05:10:26;;;;;;;10.50;4.45;;;14.80;99.90;;;;;;5100705;28;20561;-70
2023/07/18 05:12:52;;;;;;;10.40;4.32;;;15.10;99.90;;;;;;5109829;27;20027;-72
2023/07/18 05:15:18;;;;;;;8.55;4.30;;;15.10;99.90;;;;;;5109497;28;20039;-72
2023/07/18 05:17:44;;;;;;;10.13;3.90;;;15.30;99.90;;;;;;5108081;28;20027;-71
2023/07/18 05:20:11;;;;;;;11.32;4.40;;;15.20;99.90;;;;;;5107622;28;20671;-71
2023/07/18 05:22:41;;;;;;;8.45;4.15;;;15.30;99.90;;;;;;5108437;28;20395;-68
2023/07/18 05:25:09;;;;;;;12.75;4.72;;;15.20;99.90;;;;;;5116486;27;20102;-68
2023/07/18 05:27:35;;;;;;;9.85;4.60;;;15.00;99.90;;;;;;5107163;28;20085;-68
2023/07/18 05:30:04;;;;;;;8.77;4.28;;;15.00;99.90;;;;;;5105580;28;20100;-69
2023/07/18 05:32:30;;;;;;;8.50;4.10;;;15.20;99.90;;;;;;5106444;28;20071;-69
2023/07/18 05:34:58;;;;;;;9.20;4.10;;;15.30;99.90;;;;;;5107478;28;20560;-67
2023/07/18 05:37:25;;;;;;;9.32;4.18;;;15.40;99.90;;;;;;5099030;28;20404;-67
2023/07/18 05:39:51;;;;;;;11.88;4.47;;;15.60;99.90;;;;;;5102061;28;20036;-72
2023/07/18 05:42:17;;;;;;;9.60;4.60;;;15.70;99.90;;;;;;5101340;28;20108;-70
2023/07/18 05:44:43;;;;;;;12.32;4.20;;;15.60;99.90;;;;;;5106438;28;20107;-72
2023/07/18 05:47:08;;;;;;;10.20;4.10;;;15.60;99.90;;;;;;5109034;28;20038;-72
2023/07/18 05:49:34;;;;;;;10.55;4.43;;;15.70;99.90;;;;;;5105560;28;20051;-70
2023/07/18 05:51:59;;;;;;;10.95;4.35;;;15.80;99.90;;;;;;5103497;28;20115;-72
2023/07/18 05:54:25;;;;;;;11.60;4.32;;;15.90;99.90;;;;;;5109307;28;20483;-72
2023/07/18 05:56:51;;;;;;;11.30;4.35;;;16.20;99.90;;;;;;5108832;28;20098;-71
2023/07/18 05:59:16;;;;;;;8.63;3.63;;;16.40;99.90;;;;;;5099455;28;20566;-72
2023/07/18 06:01:42;;;;;;;7.38;3.38;;;16.60;99.90;;;;;;5103519;28;20043;-71
2023/07/18 06:04:09;;;;;;;6.60;3.55;;;16.90;99.90;;;;;;5097734;28;20035;-70
2023/07/18 06:06:35;;;;;;;8.85;3.58;;;17.10;99.90;;;;;;5104409;28;20032;-73
2023/07/18 06:09:00;;;;;;;8.88;3.90;;;17.40;99.90;;;;;;5095232;28;20097;-71
2023/07/18 06:11:26;;;;;;;12.73;3.70;;;17.60;99.90;;;;;;5100008;28;20062;-71
2023/07/18 06:13:52;;;;;;;7.30;3.22;;;17.80;99.90;;;;;;5095504;28;20395;-73
2023/07/18 06:16:17;;;;;;;8.43;3.65;;;18.00;99.90;;;;;;5096458;28;20024;-71
2023/07/18 06:18:43;;;;;;;10.18;3.85;;;18.20;99.90;;;;;;5104723;28;20032;-72
2023/07/18 06:21:08;;;;;;;9.77;3.33;;;18.50;99.90;;;;;;5094867;28;20032;-72
2023/07/18 06:23:34;;;;;;;6.95;3.17;;;18.50;99.90;;;;;;5095826;28;20054;-72
2023/07/18 06:26:00;;;;;;;6.80;3.33;;;18.70;99.90;;;;;;5100279;28;20038;-70
2023/07/18 06:28:25;;;;;;;7.40;3.35;;;18.80;99.90;;;;;;5107886;28;20038;-72
2023/07/18 06:30:55;;;;;;;11.30;3.10;;;18.90;99.90;;;;;;5105328;28;20034;-71
2023/07/18 06:33:22;;;;;;;7.97;3.28;;;18.90;99.90;;;;;;5107910;28;20055;-71
2023/07/18 06:35:55;;;;;;;6.40;3.30;;;19.10;99.90;;;;;;5107160;28;20024;-71
2023/07/18 06:38:21;;;;;;;7.88;3.28;;;19.30;99.90;;;;;;5108025;28;20036;-71
2023/07/18 06:40:48;;;;;;;6.85;3.20;;;19.50;99.90;;;;;;5105100;28;20072;-70
2023/07/18 06:43:14;;;;;;;10.75;3.25;;;19.60;99.90;;;;;;5110482;28;20032;-68
2023/07/18 06:45:43;;;;;;;7.90;3.03;;;19.70;99.90;;;;;;5112247;27;20099;-70
2023/07/18 06:48:09;;;;;;;7.15;3.00;;;19.80;99.90;;;;;;5109963;28;21766;-69
2023/07/18 06:50:36;;;;;;;8.25;2.85;;;20.00;99.90;;;;;;5109466;28;20077;-70
2023/07/18 06:53:02;;;;;;;6.82;2.72;;;20.10;99.90;;;;;;5091768;28;20031;-69
2023/07/18 06:55:27;;;;;;;11.05;2.65;;;20.30;99.90;;;;;;5114715;27;20039;-74
2023/07/18 06:57:53;;;;;;;10.88;3.10;;;20.50;99.90;;;;;;5109282;28;20097;-72
2023/07/18 07:00:20;;;;;;;10.25;3.25;;;20.70;99.90;;;;;;5110768;28;20049;-73
2023/07/18 07:02:46;;;;;;;6.35;2.35;;;20.80;99.90;;;;;;5110379;28;20031;-74
2023/07/18 07:05:12;;;;;;;7.78;3.13;;;20.80;99.90;;;;;;5107232;28;20032;-73
2023/07/18 07:07:37;;;;;;;4.60;2.70;;;20.90;99.90;;;;;;5111109;28;20027;-72
2023/07/18 07:10:03;;;;;;;10.77;3.00;;;20.90;99.90;;;;;;5110065;28;20047;-72
2023/07/18 07:12:32;;;;;;;9.63;2.90;;;20.90;99.90;;;;;;5110975;28;20456;-72
2023/07/18 07:14:58;;;;;;;7.95;3.00;;;21.00;99.90;;;;;;5100943;27;20093;-73
2023/07/18 07:17:23;;;;;;;8.27;3.38;;;21.20;99.90;;;;;;5107653;27;20452;-74
2023/07/18 07:19:49;;;;;;;6.00;2.72;;;21.30;99.90;;;;;;5107153;28;20451;-72
2023/07/18 07:22:15;;;;;;;6.45;3.00;;;21.50;99.90;;;;;;5108331;28;20115;-71
2023/07/18 07:24:41;;;;;;;10.07;3.25;;;21.60;99.90;;;;;;5109205;27;20032;-71
2023/07/18 07:27:07;;;;;;;6.47;2.90;;;21.60;99.90;;;;;;5109393;28;20045;-70
2023/07/18 07:29:33;;;;;;;6.28;2.90;;;21.80;99.90;;;;;;5110381;28;20383;-69
2023/07/18 07:31:59;;;;;;;5.65;2.50;;;21.90;99.90;;;;;;5109577;28;20535;-70
2023/07/18 07:34:24;;;;;;;8.35;2.60;;;22.00;99.90;;;;;;5107915;28;20114;-71
2023/07/18 07:36:50;;;;;;;5.35;2.55;;;22.00;99.90;;;;;;5101286;28;20046;-69
2023/07/18 07:39:17;;;;;;;8.02;2.63;;;22.30;99.90;;;;;;5096536;27;20583;-72
2023/07/18 07:41:44;;;;;;;7.53;2.38;;;22.40;99.00;;;;;;5096239;28;20468;-71
2023/07/18 07:44:10;;;;;;;7.45;2.30;;;22.60;99.40;;;;;;5095450;28;20016;-70
2023/07/18 07:46:35;;;;;;;5.43;2.40;;;22.60;97.70;;;;;;5098942;28;20031;-72
2023/07/18 07:49:01;;;;;;;10.77;2.40;;;22.60;97.00;;;;;;5092899;28;20044;-69
2023/07/18 07:51:27;;;;;;;9.00;2.17;;;22.70;98.00;;;;;;5101509;28;20027;-70
2023/07/18 07:53:52;;;;;;;9.00;2.78;;;22.90;96.50;;;;;;5110235;27;20395;-69
2023/07/18 07:56:18;;;;;;;8.18;2.70;;;22.90;97.40;;;;;;5107426;28;20076;-71
2023/07/18 07:58:44;;;;;;;10.45;2.65;;;23.00;97.30;;;;;;5108762;28;20027;-72
2023/07/18 08:01:10;;;;;;;4.88;2.00;;;23.20;96.50;;;;;;5108078;27;20138;-71
2023/07/18 08:03:37;;;;;;;7.03;2.38;;;23.20;95.30;;;;;;5108894;27;20042;-70
2023/07/18 08:06:08;;;;;;;5.07;2.17;;;23.30;94.30;;;;;;5108197;28;20068;-71
2023/07/18 08:08:37;;;;;;;7.53;3.63;;;23.40;94.00;;;;;;5108814;28;20028;-70
2023/07/18 08:11:03;;;;;;;5.47;2.30;;;23.50;95.30;;;;;;5102617;28;20027;-70
2023/07/18 08:13:29;;;;;;;7.35;2.58;;;23.80;95.70;;;;;;5109590;28;20530;-71
2023/07/18 08:15:57;;;;;;;9.73;2.42;;;24.00;93.50;;;;;;5106485;28;20138;-72
2023/07/18 08:18:23;;;;;;;11.63;2.35;;;24.10;94.10;;;;;;5108820;28;20030;-71
2023/07/18 08:20:49;;;;;;;4.90;2.10;;;24.10;92.70;;;;;;5109046;28;20032;-71
2023/07/18 08:23:14;;;;;;;9.57;2.70;;;23.90;92.80;;;;;;5108686;28;20842;-71
2023/07/18 08:25:43;;;;;;;6.28;2.30;;;23.90;92.20;;;;;;5117247;27;20042;-71
2023/07/18 08:28:09;;;;;;;7.35;2.25;;;24.20;92.60;;;;;;5107924;28;20036;-71
2023/07/18 08:30:35;;;;;;;10.48;2.13;;;24.40;90.40;;;;;;5101788;28;20182;-70
2023/07/18 08:33:01;;;;;;;6.65;2.22;;;24.40;90.40;;;;;;5110507;27;20504;-70
2023/07/18 08:35:29;;;;;;;4.28;2.20;;;24.70;91.30;;;;;;5109169;28;20039;-69
2023/07/18 08:37:55;;;;;;;11.80;2.17;;;24.90;91.40;;;;;;5108709;28;20024;-70
2023/07/18 08:40:23;;;;;;;5.25;2.10;;;24.90;88.50;;;;;;5107668;28;20031;-70
2023/07/18 08:42:51;;;;;;;8.70;2.45;;;24.80;87.20;;;;;;5112351;27;20039;-70
2023/07/18 08:45:19;;;;;;;10.38;2.22;;;24.70;85.80;;;;;;5107007;28;20781;-70
2023/07/18 08:47:46;;;;;;;5.28;2.38;;;24.70;85.30;;;;;;5108092;28;20047;-70
2023/07/18 08:50:12;;;;;;;9.15;2.83;;;24.70;86.60;;;;;;5108486;28;20200;-72
2023/07/18 08:52:38;;;;;;;8.38;2.33;;;24.90;84.50;;;;;;5108731;28;20106;-70
2023/07/18 08:55:06;;;;;;;4.45;2.08;;;25.20;81.00;;;;;;5108793;28;20031;-71
2023/07/18 08:57:32;;;;;;;5.28;2.30;;;25.20;79.30;;;;;;5107035;28;20111;-71
2023/07/18 09:00:04;;;;;;;5.32;2.17;;;25.40;81.30;;;;;;5107423;27;20528;-71
2023/07/18 09:02:30;;;;;;;8.57;1.98;;;25.50;78.70;;;;;;5106687;28;20046;-71
2023/07/18 09:04:56;;;;;;;4.43;1.90;;;25.60;76.60;;;;;;5103860;28;20430;-71
2023/07/18 09:07:27;;;;;;;6.60;2.35;;;25.70;79.00;;;;;;5101046;28;20063;-72
2023/07/18 09:09:57;;;;;;;6.45;2.28;;;25.60;80.30;;;;;;5106064;28;20035;-73
2023/07/18 09:12:23;;;;;;;9.07;2.85;;;25.60;76.00;;;;;;5102554;28;20035;-73
2023/07/18 09:14:55;;;;;;;5.95;2.22;;;25.60;77.60;;;;;;5116812;27;20126;-71
2023/07/18 09:17:24;;;;;;;5.55;2.00;;;25.60;76.80;;;;;;5107075;28;20031;-68
2023/07/18 09:19:52;;;;;;;6.28;2.38;;;25.70;76.30;;;;;;5107898;28;20032;-70
2023/07/18 09:22:18;;;;;;;6.28;2.10;;;26.10;77.50;;;;;;5110752;28;20812;-69
2023/07/18 09:24:44;;;;;;;4.90;2.20;;;26.40;76.60;;;;;;5107971;28;20046;-70
2023/07/18 09:27:18;;;;;;;8.13;2.22;;;26.80;74.40;;;;;;5107109;28;20035;-70
2023/07/18 09:29:45;;;;;;;6.18;2.63;;;26.80;76.10;;;;;;5106858;28;20438;-70
2023/07/18 09:32:23;;;;;;;7.55;3.03;;;26.80;75.90;;;;;;5105027;28;20686;-71
2023/07/18 09:34:56;;;;;;;5.47;2.92;;;26.60;76.80;;;;;;5108505;28;20143;-72
2023/07/18 09:37:22;;;;;;;6.30;3.15;;;26.50;78.10;;;;;;5097085;28;20035;-71
2023/07/18 09:39:49;;;;;;;8.40;2.97;;;26.20;79.60;;;;;;5108570;28;20487;-72
2023/07/18 09:42:20;;;;;;;8.63;3.72;;;26.20;77.50;;;;;;5105089;28;20036;-73
2023/07/18 09:44:48;;;;;;;6.78;3.13;;;26.10;78.70;;;;;;5104190;28;20130;-71
2023/07/18 09:47:15;;;;;;;6.75;3.30;;;26.30;77.50;;;;;;5098665;28;20027;-71
2023/07/18 09:49:45;;;;;;;6.55;3.20;;;26.50;75.80;;;;;;5102333;28;20555;-69
2023/07/18 09:52:11;;;;;;;11.30;3.00;;;26.70;75.20;;;;;;5095412;28;20028;-71
2023/07/18 09:54:41;;;;;;;8.32;3.22;;;26.80;73.60;;;;;;5105238;28;20131;-71
2023/07/18 09:57:09;;;;;;;6.30;3.10;;;26.70;74.20;;;;;;5097163;28;20103;-71
2023/07/18 09:59:39;;;;;;;8.35;2.92;;;26.10;75.50;;;;;;5097251;28;20035;-71
2023/07/18 10:02:10;;;;;;;5.38;3.20;;;26.30;78.20;;;;;;5105404;28;20058;-71
2023/07/18 10:04:36;;;;;;;7.75;3.10;;;26.70;75.30;;;;;;5106985;28;20128;-71
2023/07/18 10:07:03;;;;;;;4.95;3.03;;;27.10;72.20;;;;;;5106608;28;20038;-71
2023/07/18 10:09:31;;;;;;;5.32;3.10;;;27.10;71.80;;;;;;5106655;28;20020;-71
2023/07/18 10:12:03;;;;;;;7.97;3.15;;;27.50;72.90;;;;;;5104501;28;20071;-71
2023/07/18 10:14:29;;;;;;;8.55;3.30;;;27.60;71.40;;;;;;5088626;28;20028;-72
2023/07/18 10:17:04;;;;;;;6.05;3.10;;;27.50;70.60;;;;;;5108893;28;20032;-71
2023/07/18 10:19:45;;;;;;;6.57;3.00;;;27.80;72.70;;;;;;5110273;28;20046;-71
2023/07/18 10:22:11;;;;;;;5.65;2.63;;;28.40;70.30;;;;;;5109683;28;21596;-72
2023/07/18 10:24:48;;;;;;;8.15;3.63;;;28.00;71.60;;;;;;5107154;28;20035;-71
2023/07/18 10:27:14;;;;;;;6.75;3.00;;;27.60;74.90;;;;;;5109824;27;20455;-71
2023/07/18 10:29:41;;;;;;;10.38;3.75;;;27.10;72.50;;;;;;5109191;27;20055;-71
2023/07/18 10:32:12;;;;;;;8.93;3.80;;;26.80;76.10;;;;;;5100059;27;20031;-71
2023/07/18 10:34:51;;;;;;;7.65;3.08;;;26.50;73.20;;;;;;5105789;27;20487;-71
2023/07/18 10:37:26;;;;;;;10.60;3.53;;;26.20;74.70;;;;;;5108787;27;20133;-71
2023/07/18 10:39:55;;;;;;;17.33;4.20;;;26.10;78.20;;;;;;5100021;28;20063;-70
2023/07/18 10:42:24;;;;;;;6.43;3.30;;;26.00;77.30;;;;;;5092217;28;20031;-72
2023/07/18 10:45:04;;;;;;;6.88;3.70;;;25.90;78.60;;;;;;5107912;27;20128;-71
2023/07/18 10:47:31;;;;;;;8.65;3.42;;;25.80;79.00;;;;;;5112889;27;20031;-71
2023/07/18 10:49:58;;;;;;;10.27;3.50;;;25.70;77.40;;;;;;5103539;27;20027;-72
2023/07/18 10:52:24;;;;;;;8.85;3.30;;;25.50;78.00;;;;;;5105382;28;20043;-71
2023/07/18 10:54:57;;;;;;;7.97;3.63;;;25.40;78.50;;;;;;5114327;27;20035;-70
2023/07/18 10:57:27;;;;;;;6.28;3.25;;;25.40;77.00;;;;;;5108828;28;20162;-71
2023/07/18 10:59:58;;;;;;;9.85;3.42;;;25.50;76.30;;;;;;5096279;28;20035;-71
2023/07/18 11:02:26;;;;;;;9.02;3.38;;;25.50;77.00;;;;;;5108721;28;20105;-73
2023/07/18 11:04:52;;;;;;;7.60;3.38;;;25.50;75.80;;;;;;5111455;28;20065;-71
2023/07/18 11:07:18;;;;;;;7.75;3.35;;;25.60;76.20;;;;;;5110480;28;20689;-72
2023/07/18 11:09:44;;;;;;;6.93;3.15;;;25.50;77.10;;;;;;5111258;28;20109;-70
2023/07/18 11:12:19;;;;;;;6.47;3.25;;;25.50;77.30;;;;;;5109462;28;20043;-71
2023/07/18 11:14:46;;;;;;;8.55;3.50;;;25.60;76.10;;;;;;5116355;27;20109;-77
2023/07/18 11:17:19;;;;;;;7.35;3.33;;;26.00;81.00;;;;;;5108341;28;20106;-72
2023/07/18 11:19:46;;;;;;;8.25;3.38;;;26.30;76.10;;;;;;5108814;27;20163;-70
2023/07/18 11:22:13;;;;;;;11.27;3.83;;;26.50;77.50;;;;;;5108315;28;20066;-71
2023/07/18 11:24:44;;;;;;;7.18;3.42;;;26.20;76.40;;;;;;5114479;27;20027;-72
2023/07/18 11:27:11;;;;;;;7.72;3.40;;;26.50;74.00;;;;;;5108840;28;20027;-71
2023/07/18 11:29:38;;;;;;;6.68;3.40;;;26.70;75.90;;;;;;5111269;28;20414;-71
2023/07/18 11:32:05;;;;;;;11.55;3.40;;;26.70;74.20;;;;;;5109926;28;20027;-71
2023/07/18 11:34:31;;;;;;;8.63;3.65;;;26.40;74.90;;;;;;5090452;28;20040;-73
2023/07/18 11:36:56;;;;;;;9.65;4.13;;;26.20;76.70;;;;;;5109754;27;20031;-69
2023/07/18 11:39:22;;;;;;;7.55;3.45;;;25.90;77.50;;;;;;5112226;27;20529;-72
2023/07/18 11:41:48;;;;;;;7.82;3.80;;;25.70;78.10;;;;;;5109289;28;20028;-70
2023/07/18 11:44:24;;;;;;;10.73;3.45;;;25.60;78.90;;;;;;5114242;27;20456;-71
2023/07/18 11:46:52;;;;;;;8.05;3.92;;;25.30;79.40;;;;;;5109987;28;20027;-77
2023/07/18 11:49:31;;;;;;;7.28;3.85;;;24.90;81.00;;;;;;5109111;28;20075;-76
2023/07/18 11:51:57;;;;;;;5.97;3.78;;;24.80;81.00;;;;;;5109086;28;20060;-73
2023/07/18 11:54:26;;;;;;;10.05;3.78;;;24.70;80.70;;;;;;5115720;27;20035;-72
2023/07/18 11:56:51;;;;;;;7.03;3.85;;;24.60;84.70;;;;;;5110395;28;20035;-72
2023/07/18 11:59:17;;;;;;;7.75;4.05;;;24.50;83.70;;;;;;5109198;28;20023;-72
2023/07/18 12:01:43;;;;;;;11.10;3.85;;;24.50;85.80;;;;;;5110017;28;20028;-70
2023/07/18 12:04:12;;;;;;;8.32;3.47;;;24.40;85.20;;;;;;5108390;28;20019;-71
2023/07/18 12:06:38;;;;;;;7.47;3.50;;;24.40;83.70;;;;;;5106721;27;20036;-72
2023/07/18 12:09:04;;;;;;;7.63;3.63;;;24.40;84.50;;;;;;5109530;28;20085;-71
2023/07/18 12:11:30;;;;;;;14.45;4.65;;;24.40;85.80;;;;;;5108405;28;20099;-68
2023/07/18 12:13:57;;;;;;;7.90;3.75;;;24.40;87.30;;;;;;5108796;28;20076;-69
2023/07/18 12:16:22;;;;;;;5.95;3.50;;;24.30;85.00;;;;;;5106776;28;20035;-69
2023/07/18 12:18:48;;;;;;;8.23;4.10;;;24.30;86.00;;;;;;5106087;27;20035;-69
2023/07/18 12:21:14;;;;;;;7.13;3.58;;;24.40;88.20;;;;;;5103361;28;20451;-70
2023/07/18 12:23:40;;;;;;;7.25;3.95;;;24.50;85.80;;;;;;5113343;27;20027;-70
2023/07/18 12:26:05;;;;;;;12.13;4.40;;;24.50;86.50;;;;;;5102598;27;20362;-68
2023/07/18 12:28:31;;;;;;;7.95;3.80;;;24.60;88.80;;;;;;5099404;28;20027;-70
2023/07/18 12:30:57;;;;;;;5.80;3.85;;;24.60;86.90;;;;;;5093688;27;20035;-68
2023/07/18 12:33:23;;;;;;;6.90;3.63;;;24.70;89.50;;;;;;5106259;27;20027;-72
2023/07/18 12:35:49;;;;;;;6.53;3.80;;;24.70;87.20;;;;;;5099981;28;20073;-72
2023/07/18 12:38:15;;;;;;;8.25;3.65;;;24.80;85.50;;;;;;5111937;27;20043;-69
2023/07/18 12:40:41;;;;;;;6.90;3.60;;;24.90;82.50;;;;;;5110120;27;20076;-71